Time;durP1;ratioP1;P1;durP2;ratioP2;P2;SDS_P1;SDS_P2;PMS_P1;PMS_P2;Temp;Humidity;BMP_temperature;BMP_pressure;BME280_temperature;BME280_humidity;BME280_pressure;Samples;Min_cycle;Max_cycle;Signal;HPM_P1;HPM_P2
2021/08/01 00:02:08;;;;;;;;;;;;;;;19.03;85.78;99789.88;5041527;28;19963;-68
2021/08/01 00:04:52;;;;;;;;;;;;;;;18.97;82.93;99788.03;5041135;28;19923;-68
2021/08/01 00:07:36;;;;;;;;;;;;;;;18.93;82.52;99790.31;5041475;28;19966;-68
2021/08/01 00:10:20;;;;;;;;;;;;;;;18.93;83.09;99784.06;5041367;28;20336;-68
2021/08/01 00:13:04;;;;;;;;;;;;;;;18.92;84.14;99782.41;5041266;28;19924;-69
2021/08/01 00:15:48;;;;;;;;;;;;;;;18.91;85.17;99769.94;5041162;28;20301;-68
2021/08/01 00:18:32;;;;;;;;;;;;;;;18.88;86.19;99781.16;5041350;28;20313;-68
2021/08/01 00:21:16;;;;;;;;;;;;;;;18.84;86.71;99782.59;5041323;28;19931;-68
2021/08/01 00:24:00;;;;;;;;;;;;;;;18.82;87.48;99782.00;5041118;28;20336;-68
2021/08/01 00:26:43;;;;;;;;;;;;;;;18.80;86.90;99778.66;5040990;28;19986;-68
2021/08/01 00:29:27;;;;;;;;;;;;;;;18.79;85.61;99772.44;5040703;28;19924;-68
2021/08/01 00:32:11;;;;;;;;;;;;;;;18.71;84.35;99774.50;5040648;28;19924;-68
2021/08/01 00:34:55;;;;;;;;;;;;;;;18.68;84.25;99769.53;5040833;28;20397;-68
2021/08/01 00:37:39;;;;;;;;;;;;;;;18.66;81.93;99763.53;5040880;28;19928;-68
2021/08/01 00:40:23;;;;;;;;;;;;;;;18.64;81.71;99762.88;5040711;28;19924;-68
2021/08/01 00:43:07;;;;;;;;;;;;;;;18.63;82.62;99753.13;5040266;28;20015;-68
2021/08/01 00:45:51;;;;;;;;;;;;;;;18.50;83.23;99759.38;5040946;28;19963;-68
2021/08/01 00:48:34;;;;;;;;;;;;;;;18.47;83.64;99756.25;5040551;28;19963;-68
2021/08/01 00:51:18;;;;;;;;;;;;;;;18.38;84.39;99757.47;5040576;28;19924;-67
2021/08/01 00:54:02;;;;;;;;;;;;;;;18.33;84.51;99751.03;5040661;28;19927;-68
2021/08/01 00:56:46;;;;;;;;;;;;;;;18.37;84.00;99749.56;5040428;28;19924;-68
2021/08/01 00:59:31;;;;;;;;;;;;;;;18.35;84.10;99747.09;5040174;28;20026;-68
2021/08/01 01:02:16;;;;;;;;;;;;;;;18.28;84.67;99746.22;5040438;28;19967;-68
2021/08/01 01:05:00;;;;;;;;;;;;;;;18.30;86.13;99748.75;5040347;28;19923;-69
2021/08/01 01:08:04;;;;;;;;;;;;;;;18.28;84.95;99740.81;5054367;28;19919;-68
2021/08/01 01:10:48;;;;;;;;;;;;;;;18.25;86.70;99743.09;5053664;28;19927;-67
2021/08/01 01:13:34;;;;;;;;;;;;;;;18.27;86.51;99744.56;5040107;28;20051;-68
2021/08/01 01:16:17;;;;;;;;;;;;;;;18.25;86.28;99746.66;5039933;28;20354;-68
2021/08/01 01:19:04;;;;;;;;;;;;;;;18.25;86.37;99749.34;5054165;28;20281;-68
2021/08/01 01:21:58;;;;;;;;;;;;;;;18.24;86.97;99744.97;5040022;28;19966;-68
2021/08/01 01:24:41;;;;;;;;;;;;;;;18.10;87.68;99747.88;5040006;28;19966;-68
2021/08/01 01:27:30;;;;;;;;;;;;;;;18.09;88.11;99752.41;5040235;28;19994;-68
2021/08/01 01:30:14;;;;;;;;;;;;;;;18.12;88.15;99746.59;5040130;28;19923;-68
2021/08/01 01:33:03;;;;;;;;;;;;;;;18.04;88.70;99752.22;5039457;28;20400;-68
2021/08/01 01:35:52;;;;;;;;;;;;;;;18.02;89.39;99746.16;5039736;28;19970;-68
2021/08/01 01:38:35;;;;;;;;;;;;;;;17.98;89.36;99750.31;5039761;28;19982;-68
2021/08/01 01:41:19;;;;;;;;;;;;;;;17.96;90.30;99751.53;5039416;28;19928;-68
2021/08/01 01:44:04;;;;;;;;;;;;;;;17.92;91.12;99753.81;5039261;28;19923;-68
2021/08/01 01:46:48;;;;;;;;;;;;;;;17.92;91.35;99756.50;5039476;28;19939;-68
2021/08/01 01:49:32;;;;;;;;;;;;;;;17.93;91.22;99757.34;5039461;28;19931;-67
2021/08/01 01:52:16;;;;;;;;;;;;;;;17.95;91.27;99763.38;5039439;28;19924;-68
2021/08/01 01:55:00;;;;;;;;;;;;;;;17.91;91.90;99759.44;5052277;28;19947;-68
2021/08/01 01:57:44;;;;;;;;;;;;;;;17.96;91.91;99756.94;5039324;28;19919;-68
2021/08/01 02:00:28;;;;;;;;;;;;;;;17.98;91.57;99750.31;5039436;28;19924;-68
2021/08/01 02:03:12;;;;;;;;;;;;;;;18.03;90.69;99747.81;5039196;28;19963;-69
2021/08/01 02:05:56;;;;;;;;;;;;;;;17.98;90.32;99744.91;5038837;28;19923;-68
2021/08/01 02:08:53;;;;;;;;;;;;;;;18.00;90.32;99747.44;5038849;28;19963;-68
2021/08/01 02:11:47;;;;;;;;;;;;;;;17.96;90.82;99747.00;5039205;28;20404;-68
2021/08/01 02:14:33;;;;;;;;;;;;;;;17.96;90.32;99747.00;5053087;28;19927;-68
2021/08/01 02:17:18;;;;;;;;;;;;;;;17.90;90.57;99747.78;5038938;28;19923;-67
2021/08/01 02:20:02;;;;;;;;;;;;;;;17.84;91.39;99743.25;5053088;28;19923;-68
2021/08/01 02:22:47;;;;;;;;;;;;;;;17.89;91.82;99751.53;5039017;28;19978;-68
2021/08/01 02:25:30;;;;;;;;;;;;;;;17.88;91.86;99749.03;5038671;28;19923;-69
2021/08/01 02:28:15;;;;;;;;;;;;;;;17.83;92.91;99746.13;5038831;28;20384;-68
2021/08/01 02:30:59;;;;;;;;;;;;;;;17.81;94.46;99751.72;5038922;28;20309;-68
2021/08/01 02:33:43;;;;;;;;;;;;;;;17.75;95.90;99749.84;5052808;28;19924;-68
2021/08/01 02:36:27;;;;;;;;;;;;;;;17.70;96.10;99749.59;5039849;28;19950;-68
2021/08/01 02:39:10;;;;;;;;;;;;;;;17.68;96.38;99743.59;5038487;28;19924;-68
2021/08/01 02:41:54;;;;;;;;;;;;;;;17.66;97.27;99745.66;5038642;28;20329;-68
2021/08/01 02:44:39;;;;;;;;;;;;;;;17.68;97.47;99737.34;5038966;28;20373;-68
2021/08/01 02:47:23;;;;;;;;;;;;;;;17.66;98.86;99737.56;5038250;28;20340;-68
2021/08/01 02:50:08;;;;;;;;;;;;;;;17.63;99.66;99739.84;5038331;28;20312;-68
2021/08/01 02:52:57;;;;;;;;;;;;;;;17.56;100.00;99733.56;5038615;28;19932;-66
2021/08/01 02:55:42;;;;;;;;;;;;;;;17.56;100.00;99734.41;5052425;28;19927;-68
2021/08/01 02:58:26;;;;;;;;;;;;;;;17.56;100.00;99728.19;5038212;28;19924;-68
2021/08/01 03:01:10;;;;;;;;;;;;;;;17.56;100.00;99733.56;5038553;28;20393;-68
2021/08/01 03:03:54;;;;;;;;;;;;;;;17.51;100.00;99734.19;5038500;28;19932;-68
2021/08/01 03:06:40;;;;;;;;;;;;;;;17.52;100.00;99743.91;5039873;28;19923;-68
2021/08/01 03:09:24;;;;;;;;;;;;;;;17.54;100.00;99733.78;5043068;28;19939;-69
2021/08/01 03:12:14;;;;;;;;;;;;;;;17.51;100.00;99742.25;5042471;28;20392;-68
2021/08/01 03:14:58;;;;;;;;;;;;;;;17.53;100.00;99739.38;5042320;28;20289;-68
2021/08/01 03:17:42;;;;;;;;;;;;;;;17.56;100.00;99745.19;5042324;28;19923;-68
2021/08/01 03:20:26;;;;;;;;;;;;;;;17.60;100.00;99757.22;5056125;28;19942;-68
2021/08/01 03:23:10;;;;;;;;;;;;;;;17.61;100.00;99752.69;5042522;28;20443;-68
2021/08/01 03:25:54;;;;;;;;;;;;;;;17.58;100.00;99759.31;5055929;28;19924;-68
2021/08/01 03:28:38;;;;;;;;;;;;;;;17.54;100.00;99755.34;5041948;28;19923;-68
2021/08/01 03:31:22;;;;;;;;;;;;;;;17.56;100.00;99749.75;5042338;28;20285;-67
2021/08/01 03:34:06;;;;;;;;;;;;;;;17.52;100.00;99743.91;5041956;28;19966;-68
2021/08/01 03:36:50;;;;;;;;;;;;;;;17.53;100.00;99748.31;5041574;28;19928;-68
2021/08/01 03:39:34;;;;;;;;;;;;;;;17.50;100.00;99751.38;5041664;28;19924;-68
2021/08/01 03:42:18;;;;;;;;;;;;;;;17.53;100.00;99761.78;5041907;28;19923;-68
2021/08/01 03:45:02;;;;;;;;;;;;;;;17.47;100.00;99751.78;5041647;28;19967;-69
2021/08/01 03:47:46;;;;;;;;;;;;;;;17.55;100.00;99746.25;5041467;28;20340;-67
2021/08/01 03:50:30;;;;;;;;;;;;;;;17.50;100.00;99756.78;5041724;28;19963;-68
2021/08/01 03:53:14;;;;;;;;;;;;;;;17.48;100.00;99760.69;5041492;28;19923;-68
2021/08/01 03:56:02;;;;;;;;;;;;;;;17.48;100.00;99758.00;5041650;28;20327;-68
2021/08/01 03:58:46;;;;;;;;;;;;;;;17.47;100.00;99754.47;5041723;28;20286;-68
2021/08/01 04:01:29;;;;;;;;;;;;;;;17.42;100.00;99769.59;5041690;28;19928;-68
2021/08/01 04:04:14;;;;;;;;;;;;;;;17.44;100.00;99772.91;5041233;28;20321;-68
2021/08/01 04:06:57;;;;;;;;;;;;;;;17.44;100.00;99768.38;5055211;28;20023;-68
2021/08/01 04:09:41;;;;;;;;;;;;;;;17.43;100.00;99771.25;5041635;28;19924;-68
2021/08/01 04:12:25;;;;;;;;;;;;;;;17.46;100.00;99777.06;5041041;28;19923;-68
2021/08/01 04:15:11;;;;;;;;;;;;;;;17.40;100.00;99777.88;5041115;28;19939;-69
2021/08/01 04:17:55;;;;;;;;;;;;;;;17.37;100.00;99772.88;5040641;28;19920;-68
2021/08/01 04:20:39;;;;;;;;;;;;;;;17.34;100.00;99767.88;5041191;28;20158;-68
2021/08/01 04:23:23;;;;;;;;;;;;;;;17.35;100.00;99761.47;5041140;28;19924;-68
2021/08/01 04:26:07;;;;;;;;;;;;;;;17.28;100.00;99767.84;5041200;28;19965;-68
2021/08/01 04:28:51;;;;;;;;;;;;;;;17.29;100.00;99767.63;5041220;28;20304;-68
2021/08/01 04:31:35;;;;;;;;;;;;;;;17.21;100.00;99777.72;5041003;28;20008;-68
2021/08/01 04:34:19;;;;;;;;;;;;;;;17.22;100.00;99774.00;5040817;28;20424;-68
2021/08/01 04:37:03;;;;;;;;;;;;;;;17.25;100.00;99777.13;5040463;28;19967;-68
2021/08/01 04:39:47;;;;;;;;;;;;;;;17.22;100.00;99777.53;5040855;28;19959;-68
2021/08/01 04:42:31;;;;;;;;;;;;;;;17.16;100.00;99781.00;5040805;28;19931;-68
2021/08/01 04:45:15;;;;;;;;;;;;;;;17.12;100.00;99778.91;5040691;28;20036;-68
2021/08/01 04:47:59;;;;;;;;;;;;;;;17.16;100.00;99780.16;5040738;28;19962;-68
2021/08/01 04:50:43;;;;;;;;;;;;;;;17.25;100.00;99777.13;5040377;28;19986;-68
2021/08/01 04:53:27;;;;;;;;;;;;;;;17.23;100.00;99786.44;5040600;28;19924;-68
2021/08/01 04:56:11;;;;;;;;;;;;;;;17.23;100.00;99786.44;5040326;28;19927;-68
2021/08/01 04:58:55;;;;;;;;;;;;;;;17.25;100.00;99787.06;5040502;28;20289;-68
2021/08/01 05:01:39;;;;;;;;;;;;;;;17.24;100.00;99794.34;5040499;28;19970;-68
2021/08/01 05:04:23;;;;;;;;;;;;;;;17.28;100.00;99800.97;5040076;28;20016;-69
2021/08/01 05:07:10;;;;;;;;;;;;;;;17.26;100.00;99802.19;5040339;28;19923;-68
2021/08/01 05:09:54;;;;;;;;;;;;;;;17.29;100.00;99804.53;5040274;28;19923;-68
2021/08/01 05:12:37;;;;;;;;;;;;;;;17.29;100.00;99791.88;5040214;28;20423;-68
2021/08/01 05:15:21;;;;;;;;;;;;;;;17.27;100.00;99796.63;5040074;28;20337;-69
2021/08/01 05:18:05;;;;;;;;;;;;;;;17.34;100.00;99808.28;5040146;28;19932;-68
2021/08/01 05:20:49;;;;;;;;;;;;;;;17.36;100.00;99791.94;5040074;28;19924;-69
2021/08/01 05:23:33;;;;;;;;;;;;;;;17.38;100.00;99797.97;5040033;28;20385;-68
2021/08/01 05:26:17;;;;;;;;;;;;;;;17.29;100.00;99797.25;5039741;28;19924;-68
2021/08/01 05:29:01;;;;;;;;;;;;;;;17.32;100.00;99791.47;5039884;28;20408;-67
2021/08/01 05:31:45;;;;;;;;;;;;;;;17.33;100.00;99792.31;5039614;28;19923;-68
2021/08/01 05:34:29;;;;;;;;;;;;;;;17.32;100.00;99799.53;5039982;28;20443;-68
2021/08/01 05:37:13;;;;;;;;;;;;;;;17.32;100.00;99799.53;5039228;28;19998;-68
2021/08/01 05:39:57;;;;;;;;;;;;;;;17.33;100.00;99798.53;5039901;28;19939;-69
2021/08/01 05:42:41;;;;;;;;;;;;;;;17.33;100.00;99798.53;5039366;28;20401;-68
2021/08/01 05:45:26;;;;;;;;;;;;;;;17.33;100.00;99790.47;5039474;28;19924;-69
2021/08/01 05:48:10;;;;;;;;;;;;;;;17.27;100.00;99783.16;5039603;28;20396;-68
2021/08/01 05:50:54;;;;;;;;;;;;;;;17.33;100.00;99793.16;5039229;28;19939;-68
2021/08/01 05:53:38;;;;;;;;;;;;;;;17.26;100.00;99792.28;5039728;28;19939;-68
2021/08/01 05:56:21;;;;;;;;;;;;;;;17.35;100.00;99796.50;5039123;28;19928;-68
2021/08/01 05:59:05;;;;;;;;;;;;;;;17.36;100.00;99795.47;5039059;28;20459;-68
2021/08/01 06:01:49;;;;;;;;;;;;;;;17.46;100.00;99798.63;5039342;28;20376;-68
2021/08/01 06:04:33;;;;;;;;;;;;;;;17.47;100.00;99804.84;5039257;28;19923;-68
2021/08/01 06:07:17;;;;;;;;;;;;;;;17.53;100.00;99802.22;5038882;28;19924;-67
2021/08/01 06:10:01;;;;;;;;;;;;;;;17.58;100.00;99805.13;5039139;28;19923;-68
2021/08/01 06:12:45;;;;;;;;;;;;;;;17.64;100.00;99806.19;5039093;28;19924;-68
2021/08/01 06:15:29;;;;;;;;;;;;;;;17.65;100.00;99814.09;5038703;28;20019;-69
2021/08/01 06:18:13;;;;;;;;;;;;;;;17.71;100.00;99810.56;5038954;28;19967;-68
2021/08/01 06:21:03;;;;;;;;;;;;;;;17.74;100.00;99812.88;5038980;28;20286;-68
2021/08/01 06:23:50;;;;;;;;;;;;;;;17.67;100.00;99822.78;5053046;28;20055;-68
2021/08/01 06:26:34;;;;;;;;;;;;;;;17.73;100.00;99826.56;5038540;28;19924;-68
2021/08/01 06:29:18;;;;;;;;;;;;;;;17.59;100.00;99820.25;5038547;28;19931;-68
2021/08/01 06:32:02;;;;;;;;;;;;;;;17.55;100.00;99835.19;5038547;28;19924;-68
2021/08/01 06:34:46;;;;;;;;;;;;;;;17.36;100.00;99819.72;5038624;28;19928;-68
2021/08/01 06:37:29;;;;;;;;;;;;;;;17.24;100.00;99825.81;5038769;28;19966;-68
2021/08/01 06:40:15;;;;;;;;;;;;;;;17.13;100.00;99824.50;5038965;28;20286;-67
2021/08/01 06:42:59;;;;;;;;;;;;;;;17.05;100.00;99832.75;5038299;28;19927;-68
2021/08/01 06:45:43;;;;;;;;;;;;;;;17.06;100.00;99826.31;5038575;28;20306;-68
2021/08/01 06:48:27;;;;;;;;;;;;;;;17.06;100.00;99834.41;5038651;28;19924;-67
2021/08/01 06:51:11;;;;;;;;;;;;;;;17.24;100.00;99840.13;5038302;28;19962;-68
2021/08/01 06:53:55;;;;;;;;;;;;;;;17.37;100.00;99842.94;5038494;28;19923;-68
2021/08/01 06:56:39;;;;;;;;;;;;;;;17.54;100.00;99844.28;5038769;28;19923;-68
2021/08/01 06:59:23;;;;;;;;;;;;;;;17.78;100.00;99842.94;5038685;28;19924;-68
2021/08/01 07:02:07;;;;;;;;;;;;;;;17.82;100.00;99853.13;5052883;28;19924;-68
2021/08/01 07:04:51;;;;;;;;;;;;;;;17.77;100.00;99850.22;5038225;28;19940;-68
2021/08/01 07:07:35;;;;;;;;;;;;;;;17.82;100.00;99846.91;5038425;28;19924;-68
2021/08/01 07:10:19;;;;;;;;;;;;;;;17.73;100.00;99848.94;5038460;28;20019;-68
2021/08/01 07:13:03;;;;;;;;;;;;;;;17.62;100.00;99862.16;5038317;28;19923;-67
2021/08/01 07:15:48;;;;;;;;;;;;;;;17.62;100.00;99854.91;5037950;28;19928;-68
2021/08/01 07:18:32;;;;;;;;;;;;;;;17.65;100.00;99857.22;5038214;28;19979;-68
2021/08/01 07:21:16;;;;;;;;;;;;;;;17.84;100.00;99840.31;5038116;28;19924;-67
2021/08/01 07:24:00;;;;;;;;;;;;;;;17.79;100.00;99852.72;5038064;28;19942;-68
2021/08/01 07:26:45;;;;;;;;;;;;;;;18.12;100.00;99843.72;5038172;28;19923;-68
2021/08/01 07:29:29;;;;;;;;;;;;;;;18.05;100.00;99850.97;5038130;28;19959;-68
2021/08/01 07:32:13;;;;;;;;;;;;;;;18.08;100.00;99853.25;5038227;28;19924;-68
2021/08/01 07:34:57;;;;;;;;;;;;;;;18.11;100.00;99852.84;5052077;28;19928;-68
2021/08/01 07:37:40;;;;;;;;;;;;;;;18.14;100.00;99838.94;5038314;28;20022;-68
2021/08/01 07:40:24;;;;;;;;;;;;;;;18.48;100.00;99838.88;5038268;28;19923;-68
2021/08/01 07:43:08;;;;;;;;;;;;;;;18.56;100.00;99839.50;5038162;28;19939;-68
2021/08/01 07:45:52;;;;;;;;;;;;;;;18.67;100.00;99838.09;5038225;28;19932;-68
2021/08/01 07:48:36;;;;;;;;;;;;;;;18.43;100.00;99841.34;5038050;28;19923;-68
2021/08/01 07:51:20;;;;;;;;;;;;;;;18.23;100.00;99840.44;5038300;28;19927;-68
2021/08/01 07:54:05;;;;;;;;;;;;;;;18.31;100.00;99851.06;5039778;28;19966;-68
2021/08/01 07:56:49;;;;;;;;;;;;;;;18.56;100.00;99849.50;5041694;28;19924;-68
2021/08/01 07:59:34;;;;;;;;;;;;;;;18.81;100.00;99856.78;5041581;28;19924;-68
2021/08/01 08:02:17;;;;;;;;;;;;;;;19.12;100.00;99853.47;5041413;28;19947;-68
2021/08/01 08:05:01;;;;;;;;;;;;;;;19.31;100.00;99858.06;5041120;28;19924;-68
2021/08/01 08:07:45;;;;;;;;;;;;;;;19.29;100.00;99860.94;5055254;28;20016;-68
2021/08/01 08:10:29;;;;;;;;;;;;;;;19.07;100.00;99866.78;5041124;28;19923;-68
2021/08/01 08:13:13;;;;;;;;;;;;;;;18.90;100.00;99870.91;5041377;28;19924;-68
2021/08/01 08:15:57;;;;;;;;;;;;;;;19.12;100.00;99869.66;5041046;28;19951;-68
2021/08/01 08:18:41;;;;;;;;;;;;;;;19.45;100.00;99871.34;5041196;28;19993;-68
2021/08/01 08:21:26;;;;;;;;;;;;;;;19.52;100.00;99869.47;5040858;28;20396;-68
2021/08/01 08:24:10;;;;;;;;;;;;;;;19.80;97.53;99869.19;5041236;28;20023;-68
2021/08/01 08:26:54;;;;;;;;;;;;;;;19.81;94.40;99870.84;5040915;28;19971;-68
2021/08/01 08:29:38;;;;;;;;;;;;;;;20.03;95.08;99875.78;5041005;28;19971;-68
2021/08/01 08:32:23;;;;;;;;;;;;;;;20.25;91.76;99876.31;5040751;28;19924;-68
2021/08/01 08:35:06;;;;;;;;;;;;;;;20.21;92.13;99884.03;5040127;28;19970;-68
2021/08/01 08:37:52;;;;;;;;;;;;;;;20.16;92.20;99878.44;5042578;28;20498;-68
2021/08/01 08:40:37;;;;;;;;;;;;;;;20.23;89.29;99875.72;5041033;28;20000;-69
2021/08/01 08:43:21;;;;;;;;;;;;;;;20.20;89.58;99885.09;5054627;28;19924;-68
2021/08/01 08:46:08;;;;;;;;;;;;;;;20.16;88.32;99880.31;5040762;28;19970;-68
2021/08/01 08:48:52;;;;;;;;;;;;;;;20.65;87.69;99884.03;5040758;28;20004;-68
2021/08/01 08:51:40;;;;;;;;;;;;;;;20.59;87.35;99879.47;5040306;28;19971;-69
2021/08/01 08:54:29;;;;;;;;;;;;;;;20.54;86.50;99878.47;5040683;28;19927;-69
2021/08/01 08:57:20;;;;;;;;;;;;;;;21.02;85.07;99882.34;5054295;28;19923;-68
2021/08/01 09:00:04;;;;;;;;;;;;;;;20.92;82.27;99887.41;5040513;28;19924;-69
2021/08/01 09:02:49;;;;;;;;;;;;;;;21.12;81.68;99886.22;5056814;28;19924;-68
2021/08/01 09:05:34;;;;;;;;;;;;;;;21.30;80.50;99884.38;5042849;28;19985;-68
2021/08/01 09:08:19;;;;;;;;;;;;;;;21.59;78.50;99886.41;5042837;28;19985;-68
2021/08/01 09:11:04;;;;;;;;;;;;;;;21.83;75.53;99892.88;5043254;28;19923;-68
2021/08/01 09:13:53;;;;;;;;;;;;;;;21.81;73.77;99906.66;5041880;28;19923;-68
2021/08/01 09:16:42;;;;;;;;;;;;;;;21.31;79.02;99899.63;5043044;28;20349;-68
2021/08/01 09:19:28;;;;;;;;;;;;;;;20.91;78.14;99902.03;5042472;28;20388;-68
2021/08/01 09:22:13;;;;;;;;;;;;;;;20.91;79.40;99896.59;5042473;28;20013;-68
2021/08/01 09:25:01;;;;;;;;;;;;;;;21.21;80.07;99893.03;5042135;28;19962;-68
2021/08/01 09:27:45;;;;;;;;;;;;;;;21.05;79.49;99896.25;5042245;28;19973;-70
2021/08/01 09:30:51;;;;;;;;;;;;;;;21.18;80.39;99905.13;5041780;28;19927;-68
2021/08/01 09:33:45;;;;;;;;;;;;;;;21.26;78.19;99899.44;5057977;28;19962;-68
2021/08/01 09:36:30;;;;;;;;;;;;;;;21.33;79.61;99902.94;5041889;28;20274;-67
2021/08/01 09:39:14;;;;;;;;;;;;;;;21.50;77.46;99903.19;5042879;28;19988;-68
2021/08/01 09:42:00;;;;;;;;;;;;;;;21.57;77.36;99906.69;5056135;28;19963;-67
2021/08/01 09:44:44;;;;;;;;;;;;;;;21.71;76.72;99906.34;5056124;28;20002;-68
2021/08/01 09:47:28;;;;;;;;;;;;;;;21.26;76.99;99906.75;5041242;28;19924;-68
2021/08/01 09:50:13;;;;;;;;;;;;;;;21.20;78.54;99913.03;5041161;28;19924;-66
2021/08/01 09:52:57;;;;;;;;;;;;;;;21.23;79.02;99906.38;5040875;28;19969;-68
2021/08/01 09:55:42;;;;;;;;;;;;;;;21.40;77.52;99911.81;5040540;28;20031;-68
2021/08/01 09:58:36;;;;;;;;;;;;;;;21.66;76.41;99903.47;5040565;28;20434;-68
2021/08/01 10:01:21;;;;;;;;;;;;;;;21.50;77.20;99904.00;5040678;28;19947;-68
2021/08/01 10:04:05;;;;;;;;;;;;;;;21.48;77.52;99905.31;5039972;28;19962;-68
2021/08/01 10:07:13;;;;;;;;;;;;;;;21.76;76.17;99898.38;5040704;28;20032;-68
2021/08/01 10:09:57;;;;;;;;;;;;;;;22.30;75.49;99892.91;5054060;28;19923;-68
2021/08/01 10:12:45;;;;;;;;;;;;;;;22.69;71.27;99889.72;5040123;28;20287;-68
2021/08/01 10:15:29;;;;;;;;;;;;;;;22.55;69.40;99882.81;5039112;28;19979;-67
2021/08/01 10:18:14;;;;;;;;;;;;;;;23.13;67.43;99880.25;5039964;28;19924;-68
2021/08/01 10:20:59;;;;;;;;;;;;;;;23.59;66.65;99883.88;5041496;28;19924;-67
2021/08/01 10:23:45;;;;;;;;;;;;;;;24.01;63.52;99879.94;5043943;28;19982;-67
2021/08/01 10:26:37;;;;;;;;;;;;;;;24.05;63.96;99880.31;5044809;28;19924;-69
2021/08/01 10:29:27;;;;;;;;;;;;;;;24.19;61.14;99885.25;5045463;28;19939;-67
2021/08/01 10:32:12;;;;;;;;;;;;;;;24.03;62.72;99877.00;5045231;28;19939;-67
2021/08/01 10:35:06;;;;;;;;;;;;;;;24.14;61.68;99874.22;5045554;28;19967;-67
2021/08/01 10:37:56;;;;;;;;;;;;;;;25.25;59.00;99865.22;5056093;28;22248;-67
2021/08/01 10:40:41;;;;;;;;;;;;;;;24.75;59.67;99866.19;5043456;28;20404;-67
2021/08/01 10:43:27;;;;;;;;;;;;;;;25.18;59.00;99860.94;5042350;28;20073;-67
2021/08/01 10:46:12;;;;;;;;;;;;;;;26.11;54.09;99867.28;5042366;28;20442;-67
2021/08/01 10:48:58;;;;;;;;;;;;;;;26.35;53.66;99865.97;5041451;28;19939;-67
2021/08/01 10:51:42;;;;;;;;;;;;;;;25.41;54.57;99855.38;5062521;23;19932;-66
2021/08/01 10:54:30;;;;;;;;;;;;;;;25.91;54.01;99850.63;5072578;28;20392;-66
2021/08/01 10:57:15;;;;;;;;;;;;;;;26.72;49.82;99847.81;5072431;28;20467;-66
2021/08/01 11:00:02;;;;;;;;;;;;;;;26.55;51.96;99849.84;5058548;28;20277;-66
2021/08/01 11:02:46;;;;;;;;;;;;;;;26.60;51.41;99847.13;5058759;28;19924;-65
2021/08/01 11:05:35;;;;;;;;;;;;;;;26.85;48.85;99852.88;5059941;28;19962;-67
2021/08/01 11:08:19;;;;;;;;;;;;;;;25.70;52.32;99856.88;5072531;28;19982;-68
2021/08/01 11:11:09;;;;;;;;;;;;;;;25.07;54.95;99845.50;5058713;28;19923;-67
2021/08/01 11:13:53;;;;;;;;;;;;;;;26.12;52.73;99836.19;5072434;28;19939;-67
2021/08/01 11:16:40;;;;;;;;;;;;;;;25.81;52.44;99834.94;5058089;28;20016;-67
2021/08/01 11:19:37;;;;;;;;;;;;;;;26.45;50.52;99820.44;5072274;28;20028;-67
2021/08/01 11:22:39;;;;;;;;;;;;;;;26.84;50.36;99818.41;5058711;28;19966;-67
2021/08/01 11:25:32;;;;;;;;;;;;;;;25.90;52.21;99836.19;5072590;28;19981;-67
2021/08/01 11:28:16;;;;;;;;;;;;;;;26.21;50.29;99819.09;5060542;28;19965;-67
2021/08/01 11:31:01;;;;;;;;;;;;;;;26.71;49.88;99814.19;5075814;28;20016;-67
2021/08/01 11:33:46;;;;;;;;;;;;;;;26.71;49.12;99816.06;5076237;28;20350;-67
2021/08/01 11:36:33;;;;;;;;;;;;;;;26.11;50.72;99820.84;5076131;28;20028;-67
2021/08/01 11:39:17;;;;;;;;;;;;;;;25.46;53.00;99825.41;5062220;28;19923;-67
2021/08/01 11:42:02;;;;;;;;;;;;;;;24.70;56.07;99826.03;5061911;28;19924;-67
2021/08/01 11:44:59;;;;;;;;;;;;;;;24.05;58.28;99826.66;5061783;28;19980;-67
2021/08/01 11:47:44;;;;;;;;;;;;;;;24.32;56.99;99828.56;5061903;28;19923;-67
2021/08/01 11:50:28;;;;;;;;;;;;;;;24.78;57.38;99833.81;5061767;28;20281;-67
2021/08/01 11:53:12;;;;;;;;;;;;;;;26.40;51.74;99822.28;5061342;28;19923;-67
2021/08/01 11:56:00;;;;;;;;;;;;;;;27.02;48.60;99838.78;5061175;28;19970;-67
2021/08/01 11:58:43;;;;;;;;;;;;;;;26.24;47.69;99834.16;5075646;28;20391;-67
2021/08/01 12:01:28;;;;;;;;;;;;;;;25.84;50.27;99830.88;5061437;28;19927;-67
2021/08/01 12:04:12;;;;;;;;;;;;;;;25.62;50.53;99833.56;5061282;28;20329;-67
2021/08/01 12:06:56;;;;;;;;;;;;;;;25.65;49.53;99826.78;5075167;28;20343;-66
2021/08/01 12:09:40;;;;;;;;;;;;;;;25.29;51.17;99824.59;5061390;28;19970;-67
2021/08/01 12:12:28;;;;;;;;;;;;;;;25.07;52.38;99812.75;5061019;28;19924;-67
2021/08/01 12:15:11;;;;;;;;;;;;;;;24.76;53.21;99806.00;5075025;28;20289;-67
2021/08/01 12:17:55;;;;;;;;;;;;;;;23.50;58.52;99828.16;5061294;28;19923;-67
2021/08/01 12:20:39;;;;;;;;;;;;;;;22.17;68.37;99824.38;5061443;28;20328;-66
2021/08/01 12:23:38;;;;;;;;;;;;;;;20.99;69.65;99823.16;5061191;28;20013;-67
2021/08/01 12:26:36;;;;;;;;;;;;;;;20.20;76.85;99832.84;5060775;28;19940;-67
2021/08/01 12:29:27;;;;;;;;;;;;;;;19.38;75.96;99834.56;5061242;28;19982;-66
2021/08/01 12:32:18;;;;;;;;;;;;;;;18.96;80.90;99835.81;5061102;28;20008;-67
2021/08/01 12:35:10;;;;;;;;;;;;;;;18.93;85.69;99838.06;5060631;28;19970;-66
2021/08/01 12:38:02;;;;;;;;;;;;;;;18.72;85.23;99851.78;5061283;28;20392;-66
2021/08/01 12:40:46;;;;;;;;;;;;;;;18.21;84.29;99858.69;5060057;28;19946;-66
2021/08/01 12:43:31;;;;;;;;;;;;;;;18.02;82.76;99867.53;5060754;28;19997;-66
2021/08/01 12:46:19;;;;;;;;;;;;;;;17.69;85.54;99873.81;5060736;28;20388;-66
2021/08/01 12:49:03;;;;;;;;;;;;;;;17.41;88.82;99892.69;5074792;28;20284;-66
2021/08/01 12:51:47;;;;;;;;;;;;;;;17.27;89.26;99893.63;5060301;28;19970;-66
2021/08/01 12:54:31;;;;;;;;;;;;;;;17.25;88.79;99897.53;5060449;28;19928;-66
2021/08/01 12:57:15;;;;;;;;;;;;;;;17.36;91.08;99889.78;5060204;28;20020;-67
2021/08/01 13:00:09;;;;;;;;;;;;;;;17.37;91.84;99890.59;5060297;28;19923;-66
2021/08/01 13:02:53;;;;;;;;;;;;;;;17.75;93.81;99894.56;5074596;28;19923;-67
2021/08/01 13:05:37;;;;;;;;;;;;;;;18.20;90.10;99884.00;5060436;28;19928;-66
2021/08/01 13:08:34;;;;;;;;;;;;;;;18.59;87.47;99881.47;5060448;28;19970;-67
2021/08/01 13:11:21;;;;;;;;;;;;;;;18.74;81.64;99895.59;5060189;28;19923;-66
2021/08/01 13:14:06;;;;;;;;;;;;;;;19.01;81.57;99890.06;5074573;28;19923;-66
2021/08/01 13:16:53;;;;;;;;;;;;;;;19.68;80.64;99887.13;5074100;28;20006;-66
2021/08/01 13:19:37;;;;;;;;;;;;;;;20.10;75.80;99892.00;5060014;28;19924;-66
2021/08/01 13:22:22;;;;;;;;;;;;;;;20.14;76.85;99893.25;5060115;28;20017;-67
2021/08/01 13:25:06;;;;;;;;;;;;;;;20.40;76.06;99893.13;5059775;28;20422;-67
2021/08/01 13:27:51;;;;;;;;;;;;;;;20.57;76.67;99894.28;5060002;28;20368;-66
2021/08/01 13:30:35;;;;;;;;;;;;;;;20.47;75.95;99910.16;5059850;28;19924;-67
2021/08/01 13:33:18;;;;;;;;;;;;;;;20.51;78.23;99900.56;5074022;28;19966;-66
2021/08/01 13:36:02;;;;;;;;;;;;;;;20.88;74.48;99897.88;5059175;28;19927;-67
2021/08/01 13:38:46;;;;;;;;;;;;;;;21.23;73.42;99895.53;5059903;28;20285;-67
2021/08/01 13:41:31;;;;;;;;;;;;;;;21.26;70.84;99902.16;5059573;28;19965;-67
2021/08/01 13:44:16;;;;;;;;;;;;;;;21.39;70.53;99902.03;5073369;28;19941;-67
2021/08/01 13:47:27;;;;;;;;;;;;;;;21.47;70.46;99915.31;5059861;28;19923;-67
2021/08/01 13:50:12;;;;;;;;;;;;;;;21.17;69.74;99919.72;5074185;28;19979;-66
2021/08/01 13:52:57;;;;;;;;;;;;;;;20.42;71.29;99908.09;5073861;28;19924;-66
2021/08/01 13:55:43;;;;;;;;;;;;;;;20.22;75.90;99906.53;5073211;28;20475;-66
2021/08/01 13:58:27;;;;;;;;;;;;;;;20.10;77.12;99919.06;5059538;28;19923;-66
2021/08/01 14:01:11;;;;;;;;;;;;;;;20.01;78.93;99909.50;5059147;28;19959;-67
2021/08/01 14:03:55;;;;;;;;;;;;;;;19.87;80.82;99905.16;5058867;28;19940;-67
2021/08/01 14:06:38;;;;;;;;;;;;;;;19.70;81.84;99912.88;5059128;28;19965;-66
2021/08/01 14:09:25;;;;;;;;;;;;;;;19.21;84.14;99906.28;5073239;28;19940;-66
2021/08/01 14:12:09;;;;;;;;;;;;;;;18.76;88.90;99901.66;5059338;28;19966;-66
2021/08/01 14:14:53;;;;;;;;;;;;;;;18.50;90.38;99890.78;5059042;28;19990;-66
2021/08/01 14:17:38;;;;;;;;;;;;;;;18.38;86.85;99889.72;5072874;28;19927;-66